Terminal Aerodrome Forecast
Issued by NWS

Home | Current Version | Previous Version | Text Only | Print | Product List | Glossary On
Versions: 1 2 3 4 5 6 7 8 9 10 11 12 13 14 15 16
000
FTAK31 PAJN 270100 AAB
TAFAGY
TAF AMD
PAGY 270124Z 2701/2724 04020G30KT P6SM BKN100
     FM270400 04023G34KT P6SM BKN100
     FM271700 03018G24KT P6SM SCT100
     FM272100 03010KT P6SM SCT100
      AMD LTD TO CLD VIS AND WIND=

USA.gov is the U.S. government's official web portal to all federal, state and local government web resources and services.